createdAt,value
2018-11-14T00:01:31.346Z,90.50
2018-11-14T00:04:05.699Z,90.50
2018-11-14T00:06:40.007Z,90.50
2018-11-14T00:09:14.241Z,90.40
2018-11-14T00:11:48.827Z,90.50
2018-11-14T00:14:22.940Z,90.60
2018-11-14T00:16:57.246Z,90.60
2018-11-14T00:19:31.468Z,90.70
2018-11-14T00:22:05.866Z,90.70
2018-11-14T00:24:40.339Z,90.80
2018-11-14T00:27:14.548Z,90.80
2018-11-14T00:29:48.919Z,90.70
2018-11-14T00:32:23.236Z,90.70
2018-11-14T00:34:58.076Z,90.80
2018-11-14T00:37:32.175Z,90.80
2018-11-14T00:40:08.038Z,90.90
2018-11-14T00:42:43.006Z,90.80
2018-11-14T00:45:18.692Z,90.70
2018-11-14T00:47:52.964Z,90.60
2018-11-14T00:50:27.368Z,90.60
2018-11-14T00:53:01.674Z,90.70
2018-11-14T00:55:36.051Z,90.70
2018-11-14T00:58:10.367Z,90.60
2018-11-14T01:00:44.611Z,90.70
2018-11-14T01:03:18.958Z,90.90
2018-11-14T01:05:53.462Z,90.90
2018-11-14T01:08:28.354Z,90.80
2018-11-14T01:11:02.949Z,90.70
2018-11-14T01:13:37.438Z,90.40
2018-11-14T01:16:11.704Z,90.30
2018-11-14T01:18:46.047Z,90.20
2018-11-14T01:21:20.395Z,90.30
2018-11-14T01:23:54.873Z,90.20
2018-11-14T01:26:29.380Z,90.50
2018-11-14T01:29:03.653Z,90.30
2018-11-14T01:31:38.072Z,90.50
2018-11-14T01:34:12.462Z,90.70
2018-11-14T01:36:46.730Z,90.70
2018-11-14T01:39:21.040Z,90.60
2018-11-14T01:41:55.375Z,90.50
2018-11-14T01:44:29.717Z,90.40
2018-11-14T01:47:04.028Z,90.50
2018-11-14T01:49:38.352Z,90.50
2018-11-14T01:52:12.614Z,90.50
2018-11-14T01:54:47.091Z,90.40
2018-11-14T01:57:21.496Z,90.30
2018-11-14T01:59:55.918Z,90.00
2018-11-14T02:02:30.266Z,90.30
2018-11-14T02:05:05.851Z,90.30
2018-11-14T02:07:40.241Z,90.10
2018-11-14T02:10:16.119Z,89.90
2018-11-14T02:12:50.398Z,89.80
2018-11-14T02:15:25.782Z,89.50
2018-11-14T02:18:00.072Z,89.60
2018-11-14T02:20:34.328Z,89.30
2018-11-14T02:23:08.675Z,89.30
2018-11-14T02:25:43.067Z,89.20
2018-11-14T02:28:17.488Z,89.20
2018-11-14T02:30:51.864Z,89.30
2018-11-14T02:33:26.162Z,89.40
2018-11-14T02:36:00.620Z,90.00
2018-11-14T02:38:34.958Z,90.00
2018-11-14T02:41:09.382Z,90.10
2018-11-14T02:43:43.637Z,90.50
2018-11-14T02:46:17.896Z,90.40
2018-11-14T02:48:52.259Z,90.40
2018-11-14T02:51:27.805Z,90.30
2018-11-14T02:54:02.108Z,90.20
2018-11-14T02:56:36.612Z,90.30
2018-11-14T02:59:11.075Z,90.40
2018-11-14T03:01:45.354Z,90.40
2018-11-14T03:04:19.749Z,90.60
2018-11-14T03:06:54.131Z,90.70
2018-11-14T03:09:28.434Z,90.90
2018-11-14T03:12:02.719Z,90.90
2018-11-14T03:14:37.125Z,91.00
2018-11-14T03:17:11.361Z,90.90
2018-11-14T03:19:45.752Z,91.00
2018-11-14T03:22:20.154Z,91.30
2018-11-14T03:24:54.527Z,91.40
2018-11-14T03:27:28.919Z,91.40
2018-11-14T03:30:03.907Z,91.40
2018-11-14T03:32:38.433Z,91.30
2018-11-14T03:35:13.666Z,91.40
2018-11-14T03:37:48.101Z,91.40
2018-11-14T03:40:22.460Z,91.50
2018-11-14T03:42:56.907Z,91.40
2018-11-14T03:45:31.379Z,91.50
2018-11-14T03:48:05.737Z,91.40
2018-11-14T03:50:39.991Z,91.40
2018-11-14T03:53:14.286Z,91.30
2018-11-14T03:55:48.514Z,91.20
2018-11-14T03:58:22.957Z,91.20
2018-11-14T04:00:57.261Z,91.20
2018-11-14T04:03:31.595Z,91.00
2018-11-14T04:06:05.953Z,91.00
2018-11-14T04:08:40.398Z,90.90
2018-11-14T04:11:14.701Z,91.00
2018-11-14T04:13:48.904Z,90.90
2018-11-14T04:16:23.379Z,91.00
2018-11-14T04:18:57.680Z,90.80
2018-11-14T04:21:32.045Z,90.50
2018-11-14T04:24:06.427Z,90.50
2018-11-14T04:26:40.819Z,90.60
2018-11-14T04:29:15.379Z,90.60
2018-11-14T04:31:49.765Z,90.50
2018-11-14T04:34:23.973Z,90.80
2018-11-14T04:36:58.319Z,90.50
2018-11-14T04:39:32.545Z,90.40
2018-11-14T04:42:06.951Z,90.40
2018-11-14T04:44:41.378Z,90.30
2018-11-14T04:47:15.931Z,90.10
2018-11-14T04:49:50.163Z,90.20
2018-11-14T04:52:24.555Z,89.80
2018-11-14T04:54:58.803Z,89.90
2018-11-14T04:57:33.323Z,89.90
2018-11-14T05:00:08.813Z,89.90
2018-11-14T05:02:44.059Z,89.80
2018-11-14T05:05:20.299Z,90.00
2018-11-14T05:07:54.787Z,90.10
2018-11-14T05:10:29.223Z,90.10
2018-11-14T05:13:03.551Z,90.10
2018-11-14T05:15:37.959Z,90.20
2018-11-14T05:18:12.323Z,90.10
2018-11-14T05:20:46.795Z,90.10
2018-11-14T05:23:21.117Z,89.00
2018-11-14T05:25:55.425Z,89.80
2018-11-14T05:28:29.702Z,89.60
2018-11-14T05:31:04.280Z,89.80
2018-11-14T05:33:38.702Z,90.00
2018-11-14T05:36:13.151Z,90.00
2018-11-14T05:38:47.682Z,90.10
2018-11-14T05:41:22.015Z,90.60
2018-11-14T05:43:56.341Z,90.80
2018-11-14T05:46:30.724Z,90.90
2018-11-14T05:49:05.413Z,91.00
2018-11-14T05:51:39.849Z,91.00
2018-11-14T05:54:14.214Z,91.10
2018-11-14T05:56:48.604Z,91.00
2018-11-14T05:59:22.835Z,90.90
2018-11-14T06:01:57.267Z,90.90
2018-11-14T06:04:31.611Z,90.90
2018-11-14T06:07:05.973Z,91.10
2018-11-14T06:09:40.760Z,91.10
2018-11-14T06:12:15.263Z,91.30
2018-11-14T06:14:49.545Z,91.40
2018-11-14T06:17:23.830Z,91.40
2018-11-14T06:19:58.308Z,91.20
2018-11-14T06:22:32.718Z,91.30
2018-11-14T06:25:28.953Z,91.20
2018-11-14T06:28:04.598Z,91.10
2018-11-14T06:30:40.048Z,91.20
2018-11-14T06:33:14.293Z,91.30
2018-11-14T06:35:48.569Z,91.30
2018-11-14T06:38:22.850Z,91.30
2018-11-14T06:40:57.095Z,91.50
2018-11-14T06:43:31.286Z,91.50
2018-11-14T06:46:06.226Z,91.80
2018-11-14T06:48:40.506Z,91.80
2018-11-14T06:51:14.821Z,91.90
2018-11-14T06:53:49.036Z,92.00
2018-11-14T06:56:23.325Z,92.10
2018-11-14T06:58:57.792Z,92.10
2018-11-14T07:01:31.939Z,92.20
2018-11-14T07:04:06.257Z,92.30
2018-11-14T07:06:40.531Z,92.70
2018-11-14T07:09:14.925Z,92.70
2018-11-14T07:11:49.279Z,92.90
2018-11-14T07:14:23.651Z,93.00
2018-11-14T07:16:58.088Z,92.90
2018-11-14T07:19:33.487Z,92.90
2018-11-14T07:22:07.814Z,92.90
2018-11-14T07:24:42.184Z,92.80
2018-11-14T07:27:16.507Z,92.80
2018-11-14T07:29:50.957Z,93.00
2018-11-14T07:32:25.245Z,93.00
2018-11-14T07:34:59.593Z,93.00
2018-11-14T07:37:33.840Z,93.30
2018-11-14T07:40:10.663Z,93.20
2018-11-14T07:42:45.309Z,93.30
2018-11-14T07:45:19.695Z,93.30
2018-11-14T07:47:53.908Z,93.40
2018-11-14T07:50:28.264Z,93.50
2018-11-14T07:53:02.517Z,93.60
2018-11-14T07:55:36.885Z,93.60
2018-11-14T07:58:11.209Z,93.60
2018-11-14T08:00:45.419Z,93.70
2018-11-14T08:03:19.786Z,93.50
2018-11-14T08:05:54.455Z,93.50
2018-11-14T08:08:28.952Z,93.40
2018-11-14T08:11:03.126Z,93.50
2018-11-14T08:13:38.881Z,93.60
2018-11-14T08:16:13.321Z,93.90
2018-11-14T08:18:47.640Z,94.30
2018-11-14T08:21:22.056Z,94.40
2018-11-14T08:23:56.339Z,94.50
2018-11-14T08:26:30.576Z,94.50
2018-11-14T08:29:05.192Z,94.60
2018-11-14T08:31:39.449Z,94.70
2018-11-14T08:34:13.858Z,94.70
2018-11-14T08:36:48.148Z,94.80
2018-11-14T08:39:22.613Z,94.70
2018-11-14T08:41:56.908Z,94.90
2018-11-14T08:44:31.196Z,94.70
2018-11-14T08:47:05.900Z,94.50
2018-11-14T08:49:40.365Z,94.50
2018-11-14T08:52:14.587Z,94.60
2018-11-14T08:54:48.979Z,94.50
2018-11-14T08:57:23.647Z,94.60
2018-11-14T08:59:57.916Z,94.60
2018-11-14T09:02:32.247Z,94.60
2018-11-14T09:05:07.193Z,94.60
2018-11-14T09:07:41.594Z,94.70
2018-11-14T09:10:17.060Z,94.50
2018-11-14T09:12:51.461Z,94.50
2018-11-14T09:15:26.069Z,94.40
2018-11-14T09:18:00.510Z,94.60
2018-11-14T09:20:34.846Z,94.50
2018-11-14T09:23:09.192Z,94.40
2018-11-14T09:25:43.542Z,94.30
2018-11-14T09:28:17.807Z,94.30
2018-11-14T09:30:52.086Z,94.60
2018-11-14T09:33:26.317Z,94.70
2018-11-14T09:36:00.765Z,95.00
2018-11-14T09:38:35.029Z,95.30
2018-11-14T09:41:09.430Z,95.80
2018-11-14T09:43:43.902Z,95.70
2018-11-14T09:46:18.200Z,95.90
2018-11-14T09:48:52.559Z,95.80
2018-11-14T09:51:26.957Z,96.10
2018-11-14T09:54:01.240Z,95.90
2018-11-14T09:56:35.547Z,96.00
2018-11-14T09:59:09.818Z,95.90
2018-11-14T10:01:44.043Z,96.20
2018-11-14T10:04:18.301Z,96.40
2018-11-14T10:06:52.732Z,96.30
2018-11-14T10:09:26.988Z,95.90
2018-11-14T10:12:01.283Z,95.60
2018-11-14T10:14:35.678Z,95.60
2018-11-14T10:17:09.958Z,95.30
2018-11-14T10:19:44.564Z,95.50
2018-11-14T10:22:18.793Z,95.20
2018-11-14T10:24:53.234Z,94.90
2018-11-14T10:27:27.469Z,94.80
2018-11-14T10:30:01.844Z,94.60
2018-11-14T10:32:36.091Z,94.60
2018-11-14T10:35:10.876Z,94.20
2018-11-14T10:37:45.507Z,94.10
2018-11-14T10:40:23.090Z,93.60
2018-11-14T10:42:57.485Z,93.40
2018-11-14T10:45:31.875Z,93.80
2018-11-14T10:48:06.331Z,93.50
2018-11-14T10:50:40.628Z,93.10
2018-11-14T10:53:14.940Z,93.30
2018-11-14T10:55:49.265Z,92.80
2018-11-14T10:58:23.572Z,92.70
2018-11-14T11:01:03.416Z,92.20
2018-11-14T11:03:43.162Z,92.20
2018-11-14T11:06:32.607Z,92.00
2018-11-14T11:09:15.195Z,92.10
2018-11-14T11:11:54.979Z,91.60
2018-11-14T11:14:30.503Z,91.70
2018-11-14T11:17:10.503Z,91.40
2018-11-14T11:19:44.863Z,91.00
2018-11-14T11:22:19.243Z,90.40
2018-11-14T11:24:53.652Z,90.60
2018-11-14T11:27:27.858Z,90.40
2018-11-14T11:30:02.160Z,89.90
2018-11-14T11:32:36.502Z,89.50
2018-11-14T11:35:10.792Z,88.30
2018-11-14T11:37:45.096Z,86.90
2018-11-14T11:40:19.467Z,86.00
2018-11-14T11:42:53.783Z,87.00
2018-11-14T11:45:28.126Z,85.60
2018-11-14T11:48:02.437Z,84.70
2018-11-14T11:50:36.744Z,85.50
2018-11-14T11:53:11.287Z,85.10
2018-11-14T11:55:45.595Z,85.60
2018-11-14T11:58:20.041Z,84.70
2018-11-14T12:00:54.300Z,83.00
2018-11-14T12:03:28.680Z,82.60
2018-11-14T12:06:03.521Z,83.20
2018-11-14T12:08:37.797Z,81.90
2018-11-14T12:11:12.135Z,81.40
2018-11-14T12:13:46.708Z,81.10
2018-11-14T12:16:20.912Z,81.00
2018-11-14T12:18:55.212Z,80.30
2018-11-14T12:21:29.591Z,80.10
2018-11-14T12:24:04.091Z,79.40
2018-11-14T12:26:38.308Z,79.10
2018-11-14T12:29:12.626Z,79.50
2018-11-14T12:31:47.053Z,79.80
2018-11-14T12:34:21.410Z,78.60
2018-11-14T12:36:55.864Z,79.30
2018-11-14T12:39:30.144Z,79.70
2018-11-14T12:42:04.484Z,79.30
2018-11-14T12:44:38.755Z,80.50
2018-11-14T12:47:13.169Z,81.10
2018-11-14T12:49:47.387Z,80.80
2018-11-14T12:52:21.794Z,81.30
2018-11-14T12:54:56.145Z,80.70
2018-11-14T12:57:30.883Z,80.60
2018-11-14T13:00:06.920Z,80.50
2018-11-14T13:02:41.034Z,80.70
2018-11-14T13:05:15.919Z,79.90
2018-11-14T13:07:50.387Z,79.60
2018-11-14T13:10:24.619Z,79.80
2018-11-14T13:12:58.915Z,79.20
2018-11-14T13:15:33.318Z,80.20
2018-11-14T13:18:07.771Z,80.00
2018-11-14T13:20:42.140Z,80.80
2018-11-14T13:23:16.380Z,80.10
2018-11-14T13:25:50.698Z,79.90
2018-11-14T13:28:25.117Z,77.50
2018-11-14T13:30:59.378Z,75.60
2018-11-14T13:33:33.721Z,75.70
2018-11-14T13:36:08.040Z,75.40
2018-11-14T13:38:42.421Z,75.70
2018-11-14T13:41:16.735Z,76.30
2018-11-14T13:43:51.211Z,76.20
2018-11-14T13:46:25.644Z,76.80
2018-11-14T13:48:59.967Z,76.90
2018-11-14T13:51:34.228Z,77.50
2018-11-14T13:54:08.540Z,78.70
2018-11-14T13:56:42.811Z,79.20
2018-11-14T13:59:17.272Z,78.90
2018-11-14T14:01:51.662Z,79.40
2018-11-14T14:04:26.071Z,79.90
2018-11-14T14:07:00.567Z,79.40
2018-11-14T14:09:34.847Z,79.60
2018-11-14T14:12:09.149Z,80.00
2018-11-14T14:14:43.454Z,79.70
2018-11-14T14:17:17.742Z,79.70
2018-11-14T14:19:52.135Z,80.20
2018-11-14T14:22:26.460Z,80.80
2018-11-14T14:25:00.888Z,81.00
2018-11-14T14:27:35.244Z,81.30
2018-11-14T14:30:11.547Z,81.60
2018-11-14T14:32:46.475Z,81.90
2018-11-14T14:35:21.622Z,82.30
2018-11-14T14:37:55.964Z,82.80
2018-11-14T14:40:30.262Z,82.90
2018-11-14T14:43:04.994Z,83.30
2018-11-14T14:45:39.306Z,83.50
2018-11-14T14:48:13.535Z,83.80
2018-11-14T14:50:47.804Z,84.00
2018-11-14T14:53:22.163Z,84.50
2018-11-14T14:55:56.394Z,85.10
2018-11-14T14:58:30.891Z,85.50
2018-11-14T15:01:05.263Z,85.80
2018-11-14T15:03:39.767Z,86.30
2018-11-14T15:06:13.939Z,86.70
2018-11-14T15:08:48.295Z,86.80
2018-11-14T15:11:22.639Z,86.90
2018-11-14T15:13:56.959Z,87.40
2018-11-14T15:16:31.379Z,87.60
2018-11-14T15:19:06.003Z,87.40
2018-11-14T15:21:40.266Z,87.50
2018-11-14T15:24:14.563Z,87.60
2018-11-14T15:26:48.951Z,87.50
2018-11-14T15:29:23.344Z,87.40
2018-11-14T15:31:57.632Z,87.80
2018-11-14T15:34:32.012Z,88.00
2018-11-14T15:37:06.255Z,88.10
2018-11-14T15:39:40.506Z,88.10
2018-11-14T15:42:14.727Z,88.40
2018-11-14T15:44:49.059Z,88.90
2018-11-14T15:47:23.455Z,89.50
2018-11-14T15:49:57.791Z,90.10
2018-11-14T15:52:32.191Z,90.30
2018-11-14T15:55:07.638Z,90.60
2018-11-14T15:57:42.068Z,90.90
2018-11-14T16:00:22.030Z,90.90
2018-11-14T16:02:56.431Z,91.20
2018-11-14T16:05:31.921Z,91.40
2018-11-14T16:08:06.327Z,91.40
2018-11-14T16:10:40.871Z,91.50
2018-11-14T16:13:15.164Z,91.70
2018-11-14T16:15:49.635Z,91.40
2018-11-14T16:18:24.058Z,91.40
2018-11-14T16:20:58.373Z,91.50
2018-11-14T16:23:32.590Z,91.50
2018-11-14T16:26:06.983Z,91.50
2018-11-14T16:28:41.273Z,91.70
2018-11-14T16:31:15.663Z,91.60
2018-11-14T16:33:49.877Z,91.70
2018-11-14T16:36:24.093Z,91.70
2018-11-14T16:38:58.356Z,91.80
2018-11-14T16:41:32.719Z,92.00
2018-11-14T16:44:07.843Z,92.00
2018-11-14T16:46:42.276Z,92.20
2018-11-14T16:49:16.595Z,92.20
2018-11-14T16:51:51.014Z,92.50
2018-11-14T16:54:25.284Z,92.60
2018-11-14T16:56:59.552Z,92.60
2018-11-14T16:59:33.859Z,92.80
2018-11-14T17:02:08.119Z,92.70
2018-11-14T17:04:42.441Z,92.80
2018-11-14T17:07:16.941Z,92.70
2018-11-14T17:09:51.467Z,92.70
2018-11-14T17:12:25.914Z,92.60
2018-11-14T17:15:00.456Z,92.40
2018-11-14T17:17:34.695Z,92.50
2018-11-14T17:20:09.902Z,92.50
2018-11-14T17:22:44.647Z,92.30
2018-11-14T17:25:19.393Z,92.40
2018-11-14T17:27:53.737Z,92.30
2018-11-14T17:30:28.635Z,92.30
2018-11-14T17:33:03.076Z,92.50
2018-11-14T17:35:37.369Z,92.10
2018-11-14T17:38:11.777Z,92.00
2018-11-14T17:40:46.216Z,92.00
2018-11-14T17:43:20.515Z,91.80
2018-11-14T17:45:54.908Z,91.90
2018-11-14T17:48:29.226Z,91.70
2018-11-14T17:51:03.486Z,91.90
2018-11-14T17:53:37.772Z,91.80
2018-11-14T17:56:12.023Z,91.90
2018-11-14T17:58:47.479Z,91.80
2018-11-14T18:01:21.919Z,92.10
2018-11-14T18:03:56.244Z,91.70
2018-11-14T18:06:30.657Z,91.80
2018-11-14T18:09:08.589Z,91.80
2018-11-14T18:11:43.044Z,91.90
2018-11-14T18:14:17.264Z,92.10
2018-11-14T18:16:51.512Z,92.00
2018-11-14T18:19:25.763Z,91.90
2018-11-14T18:22:00.080Z,92.10
2018-11-14T18:24:34.301Z,92.20
2018-11-14T18:27:08.758Z,92.40
2018-11-14T18:29:43.148Z,92.20
2018-11-14T18:32:17.556Z,92.80
2018-11-14T18:34:51.916Z,92.30
2018-11-14T18:37:26.302Z,92.40
2018-11-14T18:40:00.659Z,92.50
2018-11-14T18:42:34.891Z,92.40
2018-11-14T18:45:18.700Z,92.50
2018-11-14T18:47:53.646Z,92.30
2018-11-14T18:50:28.337Z,92.40
2018-11-14T18:53:02.598Z,92.40
2018-11-14T18:55:36.892Z,92.50
2018-11-14T18:58:11.214Z,92.50
2018-11-14T19:00:45.558Z,92.60
2018-11-14T19:03:19.922Z,92.60
2018-11-14T19:05:54.275Z,92.50
2018-11-14T19:08:28.574Z,92.70
2018-11-14T19:11:02.876Z,92.60
2018-11-14T19:13:37.152Z,92.50
2018-11-14T19:16:11.497Z,92.60
2018-11-14T19:18:45.875Z,92.80
2018-11-14T19:21:20.244Z,92.60
2018-11-14T19:23:54.637Z,92.70
2018-11-14T19:26:28.995Z,92.70
2018-11-14T19:29:03.290Z,92.50
2018-11-14T19:31:37.744Z,92.70
2018-11-14T19:34:11.982Z,92.60
2018-11-14T19:36:46.330Z,92.40
2018-11-14T19:39:20.672Z,92.40
2018-11-14T19:41:55.074Z,92.40
2018-11-14T19:44:29.421Z,92.40
2018-11-14T19:47:03.905Z,92.20
2018-11-14T19:49:38.281Z,92.20
2018-11-14T19:52:12.833Z,92.30
2018-11-14T19:54:47.080Z,92.20
2018-11-14T19:57:21.437Z,92.30
2018-11-14T19:59:55.780Z,92.40
2018-11-14T20:02:30.284Z,92.30
2018-11-14T20:05:05.022Z,92.40
2018-11-14T20:07:39.321Z,92.40
2018-11-14T20:10:15.911Z,92.30
2018-11-14T20:12:50.734Z,92.30
2018-11-14T20:15:28.365Z,92.30
2018-11-14T20:18:02.697Z,92.40
2018-11-14T20:20:38.389Z,92.40
2018-11-14T20:23:12.711Z,92.40
2018-11-14T20:25:47.005Z,92.60
2018-11-14T20:28:21.351Z,92.80
2018-11-14T20:30:55.795Z,92.80
2018-11-14T20:33:30.226Z,92.80
2018-11-14T20:36:04.739Z,92.80
2018-11-14T20:38:39.031Z,92.70
2018-11-14T20:41:13.459Z,92.70
2018-11-14T20:43:47.779Z,92.70
2018-11-14T20:46:22.117Z,92.80
2018-11-14T20:48:56.543Z,92.80
2018-11-14T20:51:30.826Z,92.80
2018-11-14T20:54:05.271Z,92.90
2018-11-14T20:56:39.576Z,93.00
2018-11-14T20:59:13.877Z,93.20
2018-11-14T21:01:48.154Z,93.10
2018-11-14T21:04:22.377Z,93.00
2018-11-14T21:06:56.743Z,92.80
2018-11-14T21:09:31.148Z,92.70
2018-11-14T21:12:06.379Z,92.70
2018-11-14T21:14:40.708Z,92.50
2018-11-14T21:17:15.064Z,92.60
2018-11-14T21:19:49.510Z,92.50
2018-11-14T21:22:24.888Z,92.60
2018-11-14T21:24:59.423Z,92.70
2018-11-14T21:27:33.731Z,92.60
2018-11-14T21:30:10.559Z,92.50
2018-11-14T21:32:45.020Z,92.50
2018-11-14T21:35:22.706Z,92.50
2018-11-14T21:37:58.380Z,92.60
2018-11-14T21:40:32.695Z,92.60
2018-11-14T21:43:07.394Z,92.60
2018-11-14T21:45:41.963Z,92.70
2018-11-14T21:48:17.267Z,92.60
2018-11-14T21:50:51.627Z,92.60
2018-11-14T21:53:26.115Z,92.60
2018-11-14T21:56:00.395Z,92.60
2018-11-14T21:58:34.641Z,92.60
2018-11-14T22:01:08.971Z,92.50
2018-11-14T22:03:43.491Z,92.40
2018-11-14T22:06:17.815Z,92.40
2018-11-14T22:08:52.124Z,92.60
2018-11-14T22:11:26.499Z,93.00
2018-11-14T22:14:00.868Z,93.10
2018-11-14T22:16:35.192Z,93.10
2018-11-14T22:19:09.680Z,93.10
2018-11-14T22:21:43.973Z,93.00
2018-11-14T22:24:18.310Z,92.90
2018-11-14T22:26:52.656Z,92.90
2018-11-14T22:29:27.490Z,92.90
2018-11-14T22:32:01.817Z,92.80
2018-11-14T22:34:36.160Z,92.60
2018-11-14T22:37:10.341Z,92.60
2018-11-14T22:39:44.718Z,92.70
2018-11-14T22:42:19.645Z,92.70
2018-11-14T22:44:54.052Z,92.60
2018-11-14T22:47:28.598Z,92.50
2018-11-14T22:50:02.895Z,92.50
2018-11-14T22:52:37.485Z,92.60
2018-11-14T22:55:13.005Z,92.50
2018-11-14T22:57:48.270Z,92.30
2018-11-14T23:00:27.438Z,92.30
2018-11-14T23:03:03.046Z,92.30
2018-11-14T23:05:38.073Z,92.40
2018-11-14T23:08:12.734Z,92.40
2018-11-14T23:10:47.020Z,92.50
2018-11-14T23:13:21.277Z,92.30
2018-11-14T23:15:55.767Z,92.40
2018-11-14T23:18:30.086Z,92.40
2018-11-14T23:21:04.357Z,92.40
2018-11-14T23:23:38.811Z,92.40
2018-11-14T23:26:13.095Z,92.50
2018-11-14T23:28:47.496Z,92.40
2018-11-14T23:31:21.741Z,92.40
2018-11-14T23:33:56.151Z,92.30
2018-11-14T23:36:30.604Z,92.40
2018-11-14T23:39:08.164Z,92.30
2018-11-14T23:41:42.428Z,92.40
2018-11-14T23:44:16.723Z,92.50
2018-11-14T23:46:51.042Z,92.60
2018-11-14T23:49:25.425Z,92.70
2018-11-14T23:51:59.741Z,92.70
2018-11-14T23:54:34.033Z,92.60
2018-11-14T23:57:08.295Z,92.60
2018-11-14T23:59:42.668Z,92.50
